• Join FlightAware (Why Join?)
  • Login
  • US Flag 
04:29PM EDT


 

Airport Tracker/Info


-or-


 

Live Flight TrackerFlight Track Log ✈ SWA305 ✈ 28-Apr-2013 ✈ KMDW - KFLL

Flight Track Log - Related Links

Times and Time Zones

All times are in EDT time to prevent confusion due to time zone crossing. See the SWA305 flight status page for this flight to view local times or setup timezone preferences in your user account.

Time Position Orientation Groundspeed Altitude Reporting Facility
EDT Latitude Longitude Course Direction KTS MPH feet Rate Location/Type
01:12PM 41.8000 -87.7833 180° South 169 194 2,000  Level Chicago TRACON
01:14PM 41.7825 -87.7222 111° Southeast 237 273 5,500 2,580 Climbing Chicago Center
01:15PM 41.7064 -87.7239 181° South 266 306 8,900 3,240 Climbing Chicago Center
01:16PM 41.6244 -87.7247 180° South 289 333 12,200 3,120 Climbing Chicago Center
01:17PM 41.5375 -87.7239 180° South 307 353 15,400 2,580 Climbing Chicago Center
01:18PM 41.2038 -87.7167 180° South  Level FlightAware Approximate
01:18PM 41.4375 -87.7242 180° South 348 400 17,500  Level Chicago Center
01:19PM 41.3292 -87.7253 180° South 375 432 20,100 2,400 Climbing Chicago Center
01:20PM 41.2139 -87.7250 180° South 394 453 22,500 2,580 Climbing Chicago Center
01:21PM 41.0706 -87.7092 175° South 419 482 25,500 2,460 Climbing Chicago Center
01:22PM 40.9514 -87.6731 167° South 447 514 27,600 1,860 Climbing Chicago Center
01:23PM 40.8344 -87.6181 160° South 449 517 29,400 1,560 Climbing Chicago Center
01:24PM 40.7147 -87.5592 160° South 457 526 30,800 1,560 Climbing Chicago Center
01:25PM 40.5906 -87.5008 160° South 471 542 32,600 1,740 Climbing Chicago Center
01:26PM 40.4525 -87.4369 161° South 471 542 34,400 1,680 Climbing Chicago Center
01:27PM 40.3286 -87.3789 160° South 471 542 36,100 1,620 Climbing Chicago Center
01:28PM 40.2103 -87.3067 155° Southeast 469 540 37,800 1,320 Climbing Chicago Center
01:29PM 40.0942 -87.2347 155° Southeast 456 525 38,700 600 Climbing Indianapolis Center
01:30PM 39.9783 -87.1611 154° Southeast 461 531 39,000 120 Climbing Indianapolis Center
01:31PM 39.8600 -87.0886 155° Southeast 468 539 39,000  Level Indianapolis Center
01:32PM 39.7425 -87.0167 155° Southeast 466 536 39,000  Level Indianapolis Center
01:33PM 39.6256 -86.9444 155° Southeast 466 536 39,000  Level Indianapolis Center
01:34PM 39.4889 -86.8614 155° Southeast 464 534 39,000  Level Indianapolis Center
01:35PM 39.3719 -86.7906 155° Southeast 464 534 39,000  Level Indianapolis Center
01:36PM 39.2561 -86.7192 154° Southeast 462 532 39,000  Level Indianapolis Center
01:37PM 39.1311 -86.6444 155° Southeast 457 526 39,000  Level Indianapolis Center
01:39PM 39.0256 -86.5800 155° Southeast 456 525 39,000  Level Indianapolis Center
01:40PM 38.9108 -86.5117 155° Southeast 454 522 39,000  Level Indianapolis Center
01:41PM 38.7847 -86.4353 155° Southeast 454 522 39,000  Level Indianapolis Center
01:42PM 38.6694 -86.3681 156° South 452 520 39,000  Level Indianapolis Center
01:43PM 38.5542 -86.2992 155° Southeast 451 519 39,000  Level Indianapolis Center
01:44PM 38.4392 -86.2306 155° Southeast 451 519 39,000  Level Indianapolis Center
01:45PM 38.3239 -86.1631 155° Southeast 451 519 39,000  Level Indianapolis Center
01:46PM 38.2094 -86.0956 155° Southeast 449 517 39,000  Level Indianapolis Center
01:47PM 38.0947 -86.0275 155° Southeast 451 519 39,000  Level Indianapolis Center
01:48PM 37.9572 -85.9483 156° South 450 518 39,000  Level Indianapolis Center
01:49PM 37.8414 -85.8819 156° South 454 522 39,000  Level Indianapolis Center
01:50PM 37.7264 -85.8156 155° Southeast 451 519 39,000  Level Indianapolis Center
01:51PM 37.6114 -85.7486 155° Southeast 453 521 39,000  Level Indianapolis Center
01:52PM 37.4969 -85.6819 155° Southeast 449 517 39,000  Level Indianapolis Center
01:53PM 37.3831 -85.6175 156° South 447 514 39,000  Level Indianapolis Center
01:54PM 37.2628 -85.5483 155° Southeast 443 510 39,000  Level Indianapolis Center
01:55PM 37.1372 -85.4903 160° South 435 501 39,000  Level Indianapolis Center
01:56PM 37.0264 -85.4558 166° South 430 495 39,000  Level Indianapolis Center
01:57PM 36.9100 -85.4200 166° South 429 494 39,000  Level Indianapolis Center
01:58PM 36.7942 -85.3833 166° South 430 495 39,000  Level Indianapolis Center
01:59PM 36.6772 -85.3467 166° South 432 497 39,000  Level Indianapolis Center
02:00PM 36.5403 -85.3039 166° South 424 488 39,000  Level Indianapolis Center
02:01PM 36.4247 -85.2686 166° South 426 490 39,000  Level Indianapolis Center
02:02PM 36.3097 -85.2319 166° South 426 490 39,000  Level Indianapolis Center
02:03PM 36.1864 -85.1964 167° South 434 499 39,000  Level Atlanta Center
02:04PM 36.0719 -85.1639 167° South 434 499 39,000  Level Atlanta Center
02:05PM 35.9556 -85.1264 165° South 434 499 39,000  Level Atlanta Center
02:06PM 35.8472 -85.0967 167° South 434 499 39,000  Level Atlanta Center
02:07PM 35.7267 -85.0569 165° South 440 506 39,000  Level Atlanta Center
02:08PM 35.6081 -85.0222 167° South 440 506 39,000  Level Atlanta Center
02:09PM 35.4894 -84.9850 166° South 440 506 39,000  Level Atlanta Center
02:10PM 35.3664 -84.9506 167° South 440 506 39,000  Level Atlanta Center
02:11PM 35.2500 -84.9136 165° South 446 513 39,000  Level Atlanta Center
02:12PM 35.1292 -84.8794 167° South 446 513 39,000  Level Atlanta Center
02:13PM 35.0125 -84.8428 166° South 446 513 39,000  Level Atlanta Center
02:14PM 34.8917 -84.8086 167° South 446 513 39,000  Level Atlanta Center
02:15PM 34.7750 -84.7722 166° South 446 513 39,000  Level Atlanta Center
02:16PM 34.6606 -84.7358 165° South 441 507 39,000  Level Atlanta Center
02:17PM 34.5439 -84.7019 167° South 430 495 39,000  Level Atlanta Center
02:18PM 34.4231 -84.6683 167° South 437 503 39,000  Level Atlanta Center
02:19PM 34.2958 -84.6297 166° South 437 503 39,000  Level Atlanta Center
02:20PM 34.1792 -84.5961 167° South 430 495 39,000  Level Atlanta Center
02:21PM 34.0686 -84.5628 166° South 436 502 39,000  Level Atlanta Center
02:22PM 33.9478 -84.5322 168° South 444 511 39,000  Level Atlanta Center
02:23PM 33.8267 -84.4964 166° South 449 517 39,000  Level Atlanta Center
02:24PM 33.7039 -84.4608 166° South 454 522 39,000  Level Atlanta Center
02:25PM 33.5828 -84.4178 164° South 454 522 39,000  Level Atlanta Center
02:26PM 33.4619 -84.3675 161° South 459 528 39,000  Level Atlanta Center
02:27PM 33.3306 -84.3122 161° South 464 534 39,000  Level Atlanta Center
02:28PM 33.2117 -84.2622 161° South 459 528 39,000  Level Atlanta Center
02:29PM 33.0886 -84.2122 161° South 459 528 39,000  Level Atlanta Center
02:30PM 32.9717 -84.1675 162° South 459 528 39,000  Level Atlanta Center
02:31PM 32.8508 -84.1131 159° South 464 534 39,000  Level Atlanta Center
02:32PM 32.7317 -84.0658 162° South 464 534 39,000  Level Atlanta Center
02:33PM 32.6108 -84.0142 160° South 464 534 39,000  Level Atlanta Center
02:34PM 32.4875 -83.9625 161° South 464 534 39,000  Level Atlanta Center
02:35PM 32.3664 -83.9158 162° South 464 534 39,000  Level Atlanta Center
02:36PM 32.2453 -83.8669 161° South 464 534 39,000  Level Atlanta Center
02:37PM 32.1222 -83.8156 161° South 464 534 39,000  Level Atlanta Center
02:38PM 32.0778 -83.7972 161° South 459 528 39,000  Level Jacksonville Center
02:39PM 31.9550 -83.7472 161° South 451 519 39,000  Level Jacksonville Center
02:40PM 31.8425 -83.6972 159° South 458 527 39,000  Level Jacksonville Center
02:41PM 31.7194 -83.6472 161° South 468 539 39,000  Level Jacksonville Center
02:42PM 31.5883 -83.5975 162° South 475 547 39,000  Level Jacksonville Center
02:43PM 31.4694 -83.5528 162° South 475 547 39,000  Level Jacksonville Center
02:44PM 31.3486 -83.5056 162° South 469 540 39,000  Level Jacksonville Center
02:45PM 31.2300 -83.4586 161° South 461 531 39,000 -420 Level Jacksonville Center
02:46PM 31.1089 -83.4094 161° South 461 531 38,200 -900 Descending Jacksonville Center
02:47PM 30.9881 -83.3628 162° South 461 531 37,300 -960 Descending Jacksonville Center
02:48PM 30.8692 -83.3161 161° South 461 531 36,300 -960 Descending Jacksonville Center
02:49PM 30.7567 -83.2650 159° South 456 525 35,400 -720 Descending Jacksonville Center
02:50PM 30.6400 -83.2089 158° South 456 525 34,900 180 Descending Jacksonville Center
02:51PM 30.5231 -83.1506 157° South 456 525 35,800 900 Climbing Jacksonville Center
02:52PM 30.4042 -83.0900 156° South 456 525 36,800 600 Climbing Jacksonville Center
02:53PM 30.2853 -83.0322 157° South 456 525 37,000 60 Climbing Jacksonville Center
02:54PM 30.1683 -82.9742 157° South 456 525 37,000  Level Jacksonville Center
02:55PM 30.0494 -82.9142 156° South 456 525 37,000  Level Jacksonville Center
02:56PM 29.9200 -82.8519 157° South 456 525 37,000  Level Jacksonville Center
02:57PM 29.8050 -82.7969 157° South 456 525 37,000  Level Jacksonville Center
02:58PM 29.6881 -82.7394 157° South 456 525 37,000  Level Jacksonville Center
02:59PM 29.5733 -82.6825 157° South 456 525 37,000  Level Jacksonville Center
03:00PM 29.4542 -82.6208 156° South 456 525 37,000  Level Jacksonville Center
03:01PM 29.3369 -82.5639 157° South 456 525 37,000  Level Jacksonville Center
03:02PM 29.2200 -82.5072 157° South 456 525 37,000  Level Jacksonville Center
03:03PM 29.1031 -82.4553 159° South 456 525 37,000  Level Jacksonville Center
03:04PM 28.9778 -82.4511 178° South 436 502 37,000  Level Jacksonville Center
03:05PM 28.8544 -82.4611 184° South 441 507 37,000  Level Jacksonville Center
03:06PM 28.7294 -82.4689 183° South 441 507 37,000  Level Jacksonville Center
03:07PM 28.6106 -82.4764 183° South 441 507 37,000  Level Jacksonville Center
03:09PM 28.3633 -82.4897 183° South 444 511 37,000  Level Miami Center
03:10PM 28.2358 -82.4975 183° South 450 518 37,000  Level Miami Center
03:11PM 28.1106 -82.5031 182° South 450 518 37,000  Level Miami Center
03:12PM 27.9911 -82.5111 183° South 450 518 37,000  Level Miami Center
03:13PM 27.8672 -82.4839 169° South 437 503 37,000  Level Miami Center
03:14PM 27.7500 -82.4358 160° South 447 514 37,000 -60 Level Miami Center
03:15PM 27.6308 -82.3925 162° South 452 520 36,900 -540 Descending Miami Center
03:16PM 27.5236 -82.3547 163° South 459 528 36,000 -960 Descending Miami Center
03:17PM 27.4022 -82.3114 162° South 459 528 35,000 -1,020 Descending Miami Center
03:18PM 27.2725 -82.2608 161° South 459 528 34,000 -960 Descending Miami Center
03:19PM 27.1450 -82.2153 162° South 459 528 33,100 -960 Descending Miami Center
03:20PM 27.0275 -82.1703 161° South 454 522 32,100 -1,080 Descending Miami Center
03:21PM 26.9183 -82.1350 164° South 454 522 31,000 -1,620 Descending Miami Center
03:22PM 26.8008 -82.0903 161° South 454 522 28,900 -2,160 Descending Miami Center
03:23PM 26.7164 -82.0028 137° Southeast 427 491 26,700 -1,980 Descending Miami Center
03:24PM 26.6492 -81.8953 125° Southeast 410 472 25,000 -1,380 Descending Miami Center
03:25PM 26.5839 -81.7903 125° Southeast 410 472 24,000 -1,440 Descending Miami Center
03:26PM 26.5225 -81.6903 124° Southeast 410 472 22,200 -1,800 Descending Miami Center
03:27PM 26.4631 -81.5950 125° Southeast 398 458 20,400 -1,860 Descending Miami Center
03:28PM 26.4033 -81.5022 126° Southeast 385 443 18,500 -1,920 Descending Miami Center
03:29PM 26.3458 -81.4097 125° Southeast 373 429 16,600 -2,040 Descending Miami Center
03:30PM 26.2922 -81.3219 124° Southeast 359 413 14,500 -2,040 Descending Miami Center
03:31PM 26.2469 -81.2297 119° Southeast 348 400 12,600 -1,920 Descending Miami Center
03:32PM 26.1994 -81.1425 121° Southeast 335 386 10,700 -1,380 Descending Miami Center
03:33PM 26.1556 -81.0644 122° Southeast 319 367 9,900 -1,140 Descending Miami Center
03:33PM 26.1397 -81.0386 124° Southeast 269 310 9,300 -1,620 Descending Miami Center
03:34PM 26.1158 -80.9914 119° Southeast 298 343 8,300 -1,380 Descending Miami Center
03:34PM 26.1042 -80.9656 117° Southeast 278 320 7,900 -1,020 Descending Miami Center
03:35PM 26.0911 -80.9097 105° East 276 318 7,300 -1,020 Descending Miami Center
03:35PM 26.0817 -80.8769 108° East 275 316 6,900 -1,020 Descending Miami Center
03:36PM 26.0767 -80.8281 96° East 269 310 6,300 -900 Descending Miami Center
03:36PM 26.0756 -80.7911 92° East 271 312 6,000 -420 Descending Miami Center
03:37PM 26.0789 -80.7472 85° East 264 304 5,900  Descending Miami Center
03:37PM 26.0778 -80.7103 92° East 225 259 6,000  Climbing Miami Center
03:38PM 26.0806 -80.6781 85° East 245 282 5,900  Descending Miami Center
03:38PM 26.0756 -80.6361 98° East 226 260 6,000  Climbing Miami Center
03:39PM 26.0803 -80.6086 79° East 232 267 5,900  Descending Miami Center
03:39PM 26.0792 -80.5669 92° East 218 251 6,000  Climbing Miami Center
03:40PM 26.0800 -80.5439 88° East 221 254 5,900  Descending Miami Center
03:40PM 26.0767 -80.5044 95° East 207 238 6,000 -420 Climbing Miami Center
03:41PM 26.0794 -80.4792 83° East 209 241 5,500 -1,140 Descending Miami Center
03:41PM 26.0742 -80.4419 99° East 204 235 4,900 -1,020 Descending Miami Center
03:42PM 26.0789 -80.4167 78° East 204 235 4,500 -1,200 Descending Miami Center
03:42PM 26.0736 -80.3772 98° East 191 220 3,700 -1,200 Descending Miami Center
03:43PM 26.0750 -80.3194 88° East 189 217 2,600 -1,020 Descending Miami Center
03:44PM 26.0761 -80.2708 89° East 163 188 1,800 -840 Descending Miami Center
03:45PM 26.0750 -80.2244 92° East 139 160 1,000 -840 Descending Miami Center
03:47PM 26.0667 -80.1500 180° South  Level FlightAware Approximate
03:54PM 26.0726 -80.1527 180° South  Level Estimated
03:55PM 26.0667 -80.1500 180° South  Level FlightAware Approximate